Sabinopolis, Brazil
Current Conditions -  °F | °C
As of 2:00 PM on Friday 24 Oct 2014 (Local Time) from SBIP Reporting Station
Broken Clouds Broken Clouds  
Wind Chill: 82°   Ceiling: 4500
Heat Index: 82°   Visibility: 6mi
Dew Point: 57°   Wind: 7mph
Humidity: 42%   Direction: 70°ENE
Pressure: 29.97"   Gusts: NA
Location:  18.67°S, 43.08°W
Report Text: SBIP 241600Z 07006KT 9999 BKN045 28/14 Q1015
Loading
Personal Weather Stations






























Interactive Weather Map
Tropical Storm Tracking
New forecast layout! Learn more

10-Day Weather Forecast

Advertisements
Track Severe Weather on mobile